Ride Results

Kimberley Fire Brigade Challenge (02-05-2015)
Ride distance: 80.0 km

Outcomes - Kimberley Fire Brigade Challenge (02-05-2015)
Division No. of Entries Retired / DNE Completed Withdrawn Ineligible V/O Percentage Completed
HW 8 - 4 - 1 3 50.00%
MW 23 - 22 - - 1 95.65%
LW 17 - 12 3 - 2 70.59%
JN 8 - 7 1 - - 87.50%
Totals 56 - 45 4 1 6 80.36%
Results - Kimberley Fire Brigade Challenge (02-05-2015)
No. Rider Horse Place Time Leg Speeds Total
Km/Hr
H/R bpm
Heavyweight
212 Jan Lewin Rokewood Calgary 1 6:28:50 11.8, 12.8 12.34 42, 48, 55 (Avg:51)
199 Dennis Foley Jnr Abud 2 6:35:02 13.1, 11.2 12.15 35, 43, 48 (Avg:45)
82 Mark Dunn Calypso 3 (BC) 6:44:50 11.7, 12.0 11.86 32, 44, 52 (Avg:48)
270 Melissa Duniam Militaar Dixie Chick 4 7:21:00 10.3, 11.4 10.88 37, 46, 55 (Avg:50)
22 Helen Astell Clovelly Park Arianna Lame L2 0:00:00 15.9, 12.1 - 37, 48, 49 (Avg:48)
94 Natalie Humphries Fenwick Ovation Lame L2 0:00:00 10.3, 11.3 - 36, 46, 48 (Avg:47)
272 Greg Cowen Echo Phoebe Disqualified L1 0:00:00 15.6 - 33, 41 (Avg:41)
137 John Shoobridge Tex Lame L1 0:00:00 14.3 - 37, 42 (Avg:42)
Middleweight
38 Tony Purton Beer Street Bewitched 1 (BC) 4:14:50 19.0, 18.6 18.84 31, 39, 45 (Avg:42)
179 Debbie Grull Lauralyn Notorious 2 4:35:50 17.5, 17.2 17.40 33, 47, 43 (Avg:45)
57 Tania Jago Undurra Max 3 4:42:10 17.5, 16.5 17.01 45, 43, 46 (Avg:44)
185 Mikaela Jago Undurra Geisha 4 4:42:11 17.5, 16.5 17.01 60, 45, 54 (Avg:49)
136 Kaye Mitchell Beer Street Willis 5 4:44:32 18.6, 15.4 16.87 36, 47, 51 (Avg:49)
92 Blaine Astell Sandine Jerez 6 5:40:50 13.6, 14.5 14.08 39, 47, 46 (Avg:46)
143 Pauline Goodwin Marley Hosanna 7 5:40:58 14.8, 13.4 14.08 33, 37, 40 (Avg:38)
104 Joshua Williams Karshna Alaric 8 6:01:50 13.2, 13.2 13.27 37, 50, 52 (Avg:51)
21 Karen Quinn Diamond R Arthur 9 6:01:51 13.2, 13.2 13.27 36, 45, 55 (Avg:50)
69 Tracey Wyllie Awarran Park Summer Shayde 10 6:04:00 13.4, 12.9 13.19 36, 43, 46 (Avg:44)
180 Nicole Ford Elphyn Ripple 11 6:16:50 12.6, 12.8 12.74 31, 40, 51 (Avg:45)
254 Deb Wyllie Castella Soldier Boy 12 6:16:52 12.6, 12.8 12.74 33, 42, 55 (Avg:48)
276 Naomi Maxwell Melody 13 6:21:04 12.7, 12.4 12.60 30, 39, 41 (Avg:40)
39 Lyn Nicolle Lauralyn Kaw Liija 14 6:28:00 11.9, 12.7 12.37 41, 41, 45 (Avg:43)
50 Joanne Marshall Rivergum Windchime 15 6:31:20 11.9, 12.5 12.27 36, 44, 47 (Avg:45)
68 Janine Parr Janarr Shimmering Surprise 16 6:35:00 12.4, 11.8 12.15 33, 41, 50 (Avg:45)
76 Karin Morris Rivergum Skye 17 6:39:00 12.6, 11.4 12.03 37, 44, 48 (Avg:46)
182 Fran Jordan Follydown Mystify 18 6:39:02 12.6, 11.4 12.03 30, 40, 42 (Avg:41)
102 Keryn Mahoney Tonki Dee Boo Pricilla 19 6:50:40 11.8, 11.5 11.69 31, 39, 50 (Avg:44)
300 Raelene Smith Ben 20 7:20:51 10.7, 11.0 10.89 37, 41, 51 (Avg:46)
269 Korena Armstrong Kalody Park Rockin Robin 21 7:21:02 10.3, 11.4 10.88 39, 45, 53 (Avg:49)
232 Angela Gatti Bellatrix Lodge Sahriaal 22 7:22:00 11.5, 10.2 10.86 39, 55, 59 (Avg:57)
309 Nicole Sedgman Shadow Lame L1 0:00:00 10.7 - 34, 41 (Avg:41)
Lightweight
42 Dianne Walsh Kalkadoon Malachi 1 (BC) 4:59:00 17.1, 15.0 16.05 25, 45, 48 (Avg:46)
83 Angie Clark Castlebar Galahad 2 5:25:00 14.6, 14.9 14.77 46, 50, 51 (Avg:50)
74 Felicity Perry Awarran Park Star Shadow 3 6:04:00 13.4, 12.9 13.19 33, 50, 57 (Avg:53)
54 Brooke McKenna Narrawa Diamond 4 6:21:00 12.6, 12.4 12.60 33, 48, 53 (Avg:50)
252 Christal Rizk Harmere Burkhan 5 6:21:02 12.6, 12.4 12.60 30, 47, 54 (Avg:50)
228 Melissa Kelly Harmony 6 6:21:03 12.7, 12.4 12.60 32, 38, 55 (Avg:46)
285 Amy Dawkins Avenger of Champs 7 6:35:04 13.1, 11.2 12.15 36, 42, 50 (Avg:46)
305 Julie Carter Castlebar Khafif 8 6:39:05 12.4, 11.5 12.03 30, 40, 46 (Avg:43)
100 Trish Smith Beaucheval Akhiran 9 6:50:41 11.8, 11.5 11.69 37, 46, 53 (Avg:49)
301 Lyn Stevenson Woodsong Komet 10 7:06:30 11.9, 10.5 11.25 37, 46, 59 (Avg:52)
29 Kristy Keep Samson of Glendhu 11 7:20:50 10.7, 11.0 10.89 31, 45, 51 (Avg:48)
90 Angela Hawks Razara Mystery Maker 12 7:22:02 10.3, 11.3 10.86 30, 43, 48 (Avg:45)
271 Jessie Herman Atiya FA Lame L2 0:00:00 12.3, 12.1 - 35, 40, 47 (Avg:43)
225 Jane Walsh Banda Boozle Lame L2 0:00:00 19.5, 18.2 - 31, 41, 42 (Avg:41)
291 Kirsty Goss Highland View Barbara Widthdrawn L1 0:00:00 - - 30, 49 (Avg:49)
12 Anita Hutchins Jaggah Ka Widthdrawn L1 0:00:00 - - 32, 41 (Avg:41)
55 Jane Stratton Bellawongarah Sweet Riaality Widthdrawn L1 0:00:00 - - 46, 51 (Avg:51)
Junior
168 Emily Gerke Armidale Flash Jack 1 5:41:50 13.3, 14.8 14.04 29, 37, 44 (Avg:40)
263 Ali Smith Benstock Little Miss Rosie 2 (BC) 5:41:51 13.4, 14.6 14.04 41, 51, 48 (Avg:49)
127 Jaz Hutchins Malricia Bridget 3 6:19:55 12.3, 12.9 12.63 30, 40, 48 (Avg:44)
281 Kasey Anderson Tora Phantom 4 6:30:50 12.2, 12.3 12.28 41, 45, 52 (Avg:48)
209 Grace Huxtable Highland View Joe 5 6:35:05 12.3, 11.9 12.15 44, 44, 52 (Avg:48)
308 Ella Carter Rivergum Spirit 6 6:39:04 12.4, 11.5 12.03 23, 32, 35 (Avg:33)
18 Kandy Whiley Ra-Anji Fadel 7 7:22:01 10.3, 11.3 10.86 32, 40, 45 (Avg:42)
278 David Anderson Jnr Envios Widthdrawn L2 0:00:00 - - 35, 45, 48 (Avg:46)